KBKV

Brooksville-Tampa Bay Regional Airport

Brooksville, Florida, USA
METAR KBKV 190553Z AUTO 00000KT 10SM CLR 09/08 A3010 RMK AO2 SLP192 T00940078 10144 20078 58011
Observed Flight Rules
Jan-19 @ 05:53 UTC (25 minutes ago) Visual Flight Rules
Visibility Clouds
10 miles
  • Clear skies
Temperatures Readings
Current 9°C / 48°F
Dewpoint 8°C / 46°F
Humidity 94%
Altimeter 30.1" Hg
Pressure 1019.2 hPa
Elevation 20
METAR KBKV 190553Z AUTO 00000KT 10SM CLR 09/08 A3010 RMK AO2 SLP192 T00940078 10144 20078 58011
Observed Flight Rules
Jan-19 @ 05:53 UTC
(25 minutes ago)
VFR
Clouds
  • Clear skies
Temperature Dewpoint
9°C / 48°F 8°C / 46°F
Humidity Altimeter Pressure
94% 30.1" Hg 1019.2 hPa